Time;durP1;ratioP1;P1;durP2;ratioP2;P2;SDS_P1;SDS_P2;PMS_P1;PMS_P2;Temp;Humidity;BMP_temperature;BMP_pressure;BME280_temperature;BME280_humidity;BME280_pressure;Samples;Min_cycle;Max_cycle;Signal;HPM_P1;HPM_P2
2023/07/15 00:02:15;;;;;;;2.72;1.25;;;21.70;95.50;;;;;;7384471;32;20421;-55
2023/07/15 00:06:18;;;;;;;5.60;1.50;;;21.60;95.80;;;;;;7375863;32;20103;-55
2023/07/15 00:10:21;;;;;;;5.65;1.52;;;21.60;96.00;;;;;;7379889;32;20141;-56
2023/07/15 00:14:23;;;;;;;5.53;1.52;;;21.60;96.60;;;;;;7363648;32;20107;-55
2023/07/15 00:18:26;;;;;;;3.75;1.45;;;21.50;96.70;;;;;;7384355;32;20156;-56
2023/07/15 00:22:27;;;;;;;4.22;1.27;;;21.50;96.40;;;;;;7380486;32;20281;-55
2023/07/15 00:26:34;;;;;;;5.60;1.73;;;21.40;96.70;;;;;;7384117;32;20218;-55
2023/07/15 00:30:37;;;;;;;4.28;1.40;;;21.40;96.40;;;;;;7370450;32;20099;-56
2023/07/15 00:34:39;;;;;;;3.78;1.30;;;21.40;96.70;;;;;;7380959;32;20473;-56
2023/07/15 00:38:42;;;;;;;4.70;1.50;;;21.40;97.10;;;;;;7372066;32;20601;-55
2023/07/15 00:42:52;;;;;;;5.43;1.70;;;21.30;97.00;;;;;;7369782;32;20127;-55
2023/07/15 00:47:00;;;;;;;3.55;1.40;;;21.30;97.60;;;;;;7363180;32;20518;-55
2023/07/15 00:51:02;;;;;;;3.58;1.50;;;21.30;97.40;;;;;;7383428;32;20101;-55
2023/07/15 00:55:05;;;;;;;2.62;1.40;;;21.30;97.40;;;;;;7379736;32;20106;-56
2023/07/15 00:59:09;;;;;;;2.42;1.50;;;21.30;97.20;;;;;;7383507;32;20129;-55
2023/07/15 01:03:11;;;;;;;4.85;1.77;;;21.30;97.10;;;;;;7383243;32;20158;-55
2023/07/15 01:07:13;;;;;;;3.95;1.37;;;21.30;97.40;;;;;;7381231;32;20138;-55
2023/07/15 01:11:15;;;;;;;2.55;1.42;;;21.40;97.30;;;;;;7382037;32;20296;-55
2023/07/15 01:15:17;;;;;;;4.87;1.37;;;21.20;98.00;;;;;;7376308;32;20100;-56
2023/07/15 01:19:19;;;;;;;4.10;1.65;;;21.20;97.80;;;;;;7383050;32;20114;-55
2023/07/15 01:23:21;;;;;;;2.67;1.42;;;21.10;97.80;;;;;;7381994;32;20256;-56
2023/07/15 01:27:22;;;;;;;4.12;1.50;;;21.10;97.70;;;;;;7376514;32;20564;-56
2023/07/15 01:31:26;;;;;;;3.80;1.20;;;21.00;98.50;;;;;;7382077;32;20153;-56
2023/07/15 01:35:28;;;;;;;5.35;1.70;;;21.00;98.80;;;;;;7382154;32;20691;-56
2023/07/15 01:39:31;;;;;;;3.92;1.52;;;20.90;99.00;;;;;;7382493;32;20561;-56
2023/07/15 01:43:33;;;;;;;3.45;1.58;;;20.90;99.40;;;;;;7382177;32;20125;-56
2023/07/15 01:47:35;;;;;;;6.53;1.58;;;20.80;99.30;;;;;;7375710;32;20107;-56
2023/07/15 01:51:37;;;;;;;1.92;1.35;;;20.90;99.30;;;;;;7381833;32;20211;-56
2023/07/15 01:55:39;;;;;;;6.12;1.55;;;20.80;99.50;;;;;;7381743;32;20230;-56
2023/07/15 01:59:41;;;;;;;2.45;1.52;;;20.90;99.60;;;;;;7381300;32;20464;-55
2023/07/15 02:03:44;;;;;;;4.32;1.40;;;21.00;99.90;;;;;;7381308;32;20140;-55
2023/07/15 02:07:46;;;;;;;3.47;1.58;;;21.00;99.50;;;;;;7380023;32;20099;-56
2023/07/15 02:11:48;;;;;;;4.70;1.40;;;21.10;99.10;;;;;;7378444;32;20202;-56
2023/07/15 02:15:49;;;;;;;9.85;1.70;;;21.20;99.00;;;;;;7381247;32;20125;-56
2023/07/15 02:19:52;;;;;;;3.05;1.40;;;21.10;99.90;;;;;;7379051;32;20194;-56
2023/07/15 02:23:54;;;;;;;1.98;1.40;;;21.20;98.80;;;;;;7360801;32;20129;-56
2023/07/15 02:27:56;;;;;;;1.62;1.20;;;21.10;99.90;;;;;;7371115;32;20111;-56
2023/07/15 02:31:57;;;;;;;3.87;1.70;;;21.20;99.50;;;;;;7364576;32;20206;-56
2023/07/15 02:35:59;;;;;;;4.40;1.55;;;21.10;99.30;;;;;;7380455;32;20463;-56
2023/07/15 02:40:04;;;;;;;2.50;1.30;;;21.00;99.70;;;;;;7361348;32;20111;-56
2023/07/15 02:44:06;;;;;;;4.60;1.45;;;21.10;99.40;;;;;;7360686;32;20104;-56
2023/07/15 02:48:07;;;;;;;8.25;1.60;;;21.00;99.70;;;;;;7362318;32;20253;-58
2023/07/15 02:52:09;;;;;;;3.45;1.37;;;21.00;99.80;;;;;;7367642;32;20182;-56
2023/07/15 02:56:11;;;;;;;3.10;1.37;;;21.00;99.90;;;;;;7366123;32;20163;-56
2023/07/15 03:00:15;;;;;;;6.28;1.40;;;20.80;99.90;;;;;;7367821;32;20121;-56
2023/07/15 03:04:18;;;;;;;2.95;1.48;;;20.80;99.90;;;;;;7361156;32;20201;-56
2023/07/15 03:08:21;;;;;;;3.58;1.62;;;20.80;99.90;;;;;;7359965;32;20616;-56
2023/07/15 03:12:22;;;;;;;3.03;1.50;;;20.70;99.90;;;;;;7364908;32;20261;-56
2023/07/15 03:16:24;;;;;;;3.05;1.45;;;20.70;99.90;;;;;;7363804;32;20110;-56
2023/07/15 03:20:26;;;;;;;2.80;1.58;;;20.60;99.90;;;;;;7359860;32;20382;-56
2023/07/15 03:24:29;;;;;;;4.60;1.77;;;20.60;99.90;;;;;;7379421;32;20122;-56
2023/07/15 03:28:30;;;;;;;2.67;1.40;;;20.50;99.90;;;;;;7370473;32;20129;-56
2023/07/15 03:32:32;;;;;;;2.90;1.70;;;20.50;99.90;;;;;;7358232;32;20122;-56
2023/07/15 03:36:34;;;;;;;3.70;1.60;;;20.50;99.90;;;;;;7358701;32;20602;-56
2023/07/15 03:40:36;;;;;;;5.55;1.50;;;20.40;99.90;;;;;;7370286;32;20107;-56
2023/07/15 03:44:38;;;;;;;2.92;1.40;;;20.40;99.90;;;;;;7364129;32;20229;-56
2023/07/15 03:48:39;;;;;;;2.45;1.20;;;20.30;99.90;;;;;;7365954;32;20116;-56
2023/07/15 03:52:41;;;;;;;2.80;1.40;;;20.30;99.90;;;;;;7366993;32;20193;-56
2023/07/15 03:56:43;;;;;;;2.83;1.40;;;20.30;99.90;;;;;;7370056;32;20188;-56
2023/07/15 04:00:45;;;;;;;2.97;1.45;;;20.30;99.90;;;;;;7371643;32;20110;-56
2023/07/15 04:04:47;;;;;;;3.10;1.10;;;20.30;99.90;;;;;;7358234;32;20605;-56
2023/07/15 04:08:50;;;;;;;3.58;1.40;;;20.20;99.90;;;;;;7363815;32;20479;-56
2023/07/15 04:12:52;;;;;;;6.00;1.67;;;20.30;99.90;;;;;;7371642;32;20107;-56
2023/07/15 04:16:53;;;;;;;4.40;1.52;;;20.30;99.90;;;;;;7363724;32;20171;-56
2023/07/15 04:20:55;;;;;;;1.98;1.33;;;20.30;99.90;;;;;;7378303;32;20119;-56
2023/07/15 04:24:57;;;;;;;3.67;1.60;;;20.30;99.90;;;;;;7378628;32;20133;-56
2023/07/15 04:28:59;;;;;;;3.75;1.50;;;20.30;99.90;;;;;;7364973;32;20736;-56
2023/07/15 04:33:01;;;;;;;5.40;1.45;;;20.30;99.90;;;;;;7368061;32;20103;-55
2023/07/15 04:37:03;;;;;;;4.57;1.60;;;20.40;99.90;;;;;;7368742;32;20160;-56
2023/07/15 04:41:05;;;;;;;3.70;1.23;;;20.50;99.90;;;;;;7370722;32;20357;-57
2023/07/15 04:45:07;;;;;;;3.78;1.40;;;20.70;99.90;;;;;;7364543;32;20141;-56
2023/07/15 04:49:10;;;;;;;4.43;1.52;;;20.80;99.90;;;;;;7368183;32;20166;-56
2023/07/15 04:53:12;;;;;;;5.15;1.45;;;21.00;99.90;;;;;;7372792;32;20395;-56
2023/07/15 04:57:16;;;;;;;3.35;1.52;;;21.20;99.90;;;;;;7370607;32;20160;-56
2023/07/15 05:01:18;;;;;;;4.18;1.30;;;21.50;99.90;;;;;;7364650;32;20257;-56
2023/07/15 05:05:20;;;;;;;4.30;1.65;;;21.80;99.90;;;;;;7358706;32;20650;-56
2023/07/15 05:09:22;;;;;;;5.80;1.77;;;22.10;99.90;;;;;;7372585;32;20516;-56
2023/07/15 05:13:25;;;;;;;2.15;1.23;;;22.40;99.90;;;;;;7376597;32;20111;-57
2023/07/15 05:17:27;;;;;;;2.30;1.20;;;22.70;99.90;;;;;;7381021;32;20107;-56
2023/07/15 05:21:29;;;;;;;3.65;1.33;;;23.10;99.90;;;;;;7374617;32;20373;-56
2023/07/15 05:25:32;;;;;;;3.78;1.20;;;23.30;99.90;;;;;;7372503;32;20138;-56
2023/07/15 05:29:33;;;;;;;3.85;1.35;;;23.60;99.90;;;;;;7380870;32;20554;-56
2023/07/15 05:33:35;;;;;;;3.10;1.40;;;23.70;99.30;;;;;;7380063;32;20122;-56
2023/07/15 05:37:37;;;;;;;3.20;1.42;;;24.10;99.30;;;;;;7375436;32;20152;-56
2023/07/15 05:41:39;;;;;;;4.97;1.37;;;24.40;98.50;;;;;;7376992;32;20218;-56
2023/07/15 05:45:41;;;;;;;4.82;1.48;;;24.70;98.20;;;;;;7375641;32;20107;-56
2023/07/15 05:49:43;;;;;;;2.55;1.20;;;25.20;97.00;;;;;;7371303;32;20146;-55
2023/07/15 05:53:45;;;;;;;2.95;1.50;;;25.40;97.00;;;;;;7381578;32;20187;-57
2023/07/15 05:57:46;;;;;;;3.30;1.35;;;25.50;96.00;;;;;;7381151;32;20115;-56
2023/07/15 06:01:48;;;;;;;4.00;1.40;;;26.00;94.10;;;;;;7380680;32;20249;-56
2023/07/15 06:05:50;;;;;;;3.97;1.48;;;26.30;93.60;;;;;;7378302;32;20164;-56
2023/07/15 06:09:52;;;;;;;4.78;1.50;;;26.40;92.40;;;;;;7380356;32;20259;-56
2023/07/15 06:13:54;;;;;;;5.03;1.60;;;26.70;92.10;;;;;;7376864;32;20107;-56
2023/07/15 06:17:57;;;;;;;2.55;1.15;;;26.90;91.60;;;;;;7380721;32;20102;-57
2023/07/15 06:21:59;;;;;;;5.70;1.40;;;27.10;91.90;;;;;;7365610;32;20183;-54
2023/07/15 06:26:03;;;;;;;3.87;1.55;;;27.30;92.30;;;;;;7365828;32;20126;-55
2023/07/15 06:30:06;;;;;;;4.75;1.50;;;27.90;92.00;;;;;;7380463;32;20561;-55
2023/07/15 06:34:08;;;;;;;3.33;1.50;;;28.70;91.90;;;;;;7376322;32;20106;-56
2023/07/15 06:38:10;;;;;;;4.62;1.42;;;28.80;88.50;;;;;;7377437;32;20125;-56
2023/07/15 06:42:12;;;;;;;5.35;1.73;;;29.40;93.40;;;;;;7378714;32;20598;-56
2023/07/15 06:46:14;;;;;;;4.40;1.27;;;29.50;83.60;;;;;;7373449;32;20469;-56
2023/07/15 06:50:16;;;;;;;2.53;1.40;;;28.90;87.60;;;;;;7378067;32;20477;-56
2023/07/15 06:54:17;;;;;;;4.15;1.45;;;28.50;85.50;;;;;;7363869;32;20179;-56
2023/07/15 06:58:19;;;;;;;5.37;1.25;;;28.70;89.20;;;;;;7376651;32;20113;-56
2023/07/15 07:02:21;;;;;;;1.87;1.20;;;28.60;90.40;;;;;;7378989;32;20147;-56
2023/07/15 07:06:23;;;;;;;2.15;1.30;;;28.00;88.80;;;;;;7370844;32;20110;-57
2023/07/15 07:10:25;;;;;;;7.45;1.58;;;27.80;91.70;;;;;;7375732;32;20162;-56
2023/07/15 07:14:27;;;;;;;4.57;1.80;;;27.70;92.10;;;;;;7369814;32;20520;-57
2023/07/15 07:18:29;;;;;;;3.62;1.40;;;27.50;93.40;;;;;;7365038;32;20205;-56
2023/07/15 07:22:31;;;;;;;2.62;1.30;;;27.10;91.80;;;;;;7382211;32;20516;-56
2023/07/15 07:26:33;;;;;;;3.42;1.50;;;26.50;91.80;;;;;;7382662;32;20394;-57
2023/07/15 07:30:35;;;;;;;4.18;1.50;;;26.00;93.80;;;;;;7384576;32;20104;-57
2023/07/15 07:34:37;;;;;;;5.30;1.30;;;25.70;95.10;;;;;;7371481;32;20739;-57
2023/07/15 07:38:38;;;;;;;5.18;1.60;;;25.40;95.60;;;;;;7380134;32;20527;-57
2023/07/15 07:42:40;;;;;;;3.72;1.62;;;25.10;96.90;;;;;;7379887;32;20415;-57
2023/07/15 07:46:42;;;;;;;5.43;1.60;;;25.00;96.20;;;;;;7378620;32;20124;-56
2023/07/15 07:50:44;;;;;;;6.20;1.55;;;24.90;98.00;;;;;;7383779;32;20107;-57
2023/07/15 07:54:46;;;;;;;4.87;1.50;;;24.80;98.40;;;;;;7378068;32;20445;-57
2023/07/15 07:58:48;;;;;;;3.47;1.40;;;24.90;96.90;;;;;;7383739;32;20635;-57
2023/07/15 08:02:50;;;;;;;6.70;1.67;;;24.90;99.30;;;;;;7382706;32;20166;-56
2023/07/15 08:06:53;;;;;;;5.50;1.50;;;24.90;98.30;;;;;;7379908;32;20200;-57
2023/07/15 08:10:55;;;;;;;3.62;1.35;;;24.80;98.30;;;;;;7379528;32;20522;-57
2023/07/15 08:14:56;;;;;;;3.55;1.30;;;24.90;98.20;;;;;;7378290;32;20099;-56
2023/07/15 08:18:59;;;;;;;2.67;1.67;;;25.20;99.60;;;;;;7368738;32;20724;-56
2023/07/15 08:23:01;;;;;;;3.92;1.40;;;26.10;98.20;;;;;;7380531;32;20111;-56
2023/07/15 08:27:03;;;;;;;2.33;1.20;;;26.20;95.70;;;;;;7380804;32;20102;-57
2023/07/15 08:31:04;;;;;;;2.62;1.42;;;26.00;96.40;;;;;;7378814;32;20122;-58
2023/07/15 08:35:07;;;;;;;4.50;1.45;;;25.80;96.70;;;;;;7379885;32;20103;-57
2023/07/15 08:39:08;;;;;;;5.20;1.50;;;25.60;96.70;;;;;;7379424;32;20485;-57
2023/07/15 08:43:10;;;;;;;5.72;1.62;;;25.50;96.60;;;;;;7371495;32;20138;-57
2023/07/15 08:47:20;;;;;;;3.65;1.50;;;25.40;97.60;;;;;;7373093;32;20099;-57
2023/07/15 08:51:29;;;;;;;3.60;1.45;;;25.20;98.90;;;;;;7378002;32;20144;-57
2023/07/15 08:55:31;;;;;;;5.55;1.80;;;25.20;98.70;;;;;;7368035;32;20499;-57
2023/07/15 08:59:33;;;;;;;2.78;1.40;;;24.90;99.10;;;;;;7371967;32;20505;-57
2023/07/15 09:03:35;;;;;;;4.90;1.33;;;24.60;99.90;;;;;;7377728;32;20107;-58
2023/07/15 09:07:57;;;;;;;6.70;1.50;;;24.40;99.90;;;;;;7378184;32;20111;-57
2023/07/15 09:12:10;;;;;;;2.80;1.27;;;24.00;99.90;;;;;;7362291;32;20387;-57
2023/07/15 09:16:13;;;;;;;5.55;1.67;;;23.10;99.90;;;;;;7373003;32;20160;-56
2023/07/15 09:20:19;;;;;;;4.60;1.80;;;22.30;99.90;;;;;;7376837;32;20443;-56
2023/07/15 09:24:25;;;;;;;3.37;1.83;;;21.90;99.90;;;;;;7367263;32;20150;-57
2023/07/15 09:28:27;;;;;;;3.87;1.98;;;21.40;99.90;;;;;;7374782;32;20414;-57
2023/07/15 09:32:31;;;;;;;4.80;2.17;;;21.10;99.90;;;;;;7376278;32;20406;-57
2023/07/15 09:36:33;;;;;;;3.35;1.87;;;20.90;99.90;;;;;;7374555;32;20123;-57
2023/07/15 09:40:41;;;;;;;7.30;2.50;;;20.70;99.90;;;;;;7371928;32;20102;-57
2023/07/15 09:44:43;;;;;;;7.57;2.95;;;20.60;99.90;;;;;;7373582;32;20134;-57
2023/07/15 09:48:47;;;;;;;5.35;2.60;;;20.40;99.90;;;;;;7372558;32;20103;-58
2023/07/15 09:52:52;;;;;;;4.37;3.10;;;20.30;99.90;;;;;;7375018;32;20096;-59
2023/07/15 09:57:09;;;;;;;5.55;2.92;;;20.10;99.90;;;;;;7368407;32;20543;-57
2023/07/15 10:01:17;;;;;;;5.62;3.00;;;20.10;99.90;;;;;;7362261;32;20125;-57
2023/07/15 10:05:20;;;;;;;6.22;2.90;;;20.10;99.90;;;;;;7376097;32;20114;-57
2023/07/15 10:09:22;;;;;;;5.10;2.85;;;20.30;99.90;;;;;;7373427;32;20149;-57
2023/07/15 10:13:24;;;;;;;4.75;3.00;;;20.30;99.90;;;;;;7375462;32;21992;-57
2023/07/15 10:17:34;;;;;;;4.22;2.62;;;20.40;99.90;;;;;;7380391;32;20106;-57
2023/07/15 10:21:36;;;;;;;5.18;3.10;;;20.30;99.90;;;;;;7374431;32;20587;-57
2023/07/15 10:25:42;;;;;;;6.32;3.53;;;20.30;99.90;;;;;;7366845;32;20142;-58
2023/07/15 10:29:44;;;;;;;5.05;3.50;;;20.30;99.90;;;;;;7378588;32;20103;-57
2023/07/15 10:34:03;;;;;;;6.07;3.25;;;20.40;99.90;;;;;;7376192;32;20166;-57
2023/07/15 10:38:34;;;;;;;5.60;3.00;;;20.60;99.90;;;;;;7375315;32;20103;-59
2023/07/15 10:42:36;;;;;;;3.72;2.80;;;20.80;99.90;;;;;;7370289;32;20151;-57
2023/07/15 10:46:38;;;;;;;5.35;3.00;;;21.10;99.90;;;;;;7370686;32;20225;-56
2023/07/15 10:50:40;;;;;;;4.85;2.90;;;21.40;99.90;;;;;;7376951;32;20138;-58
2023/07/15 10:54:42;;;;;;;5.18;2.78;;;21.80;99.90;;;;;;7377595;32;20628;-57
2023/07/15 10:58:45;;;;;;;5.28;2.70;;;21.90;99.90;;;;;;7373904;32;20380;-56
2023/07/15 11:02:46;;;;;;;5.32;2.60;;;21.90;99.90;;;;;;7377611;32;20178;-57
2023/07/15 11:06:49;;;;;;;3.40;2.20;;;21.80;99.90;;;;;;7366724;32;20872;-57
2023/07/15 11:10:57;;;;;;;9.00;2.55;;;21.70;99.90;;;;;;7372775;32;20175;-57
2023/07/15 11:14:59;;;;;;;3.90;2.17;;;21.60;99.90;;;;;;7371267;32;20156;-57
2023/07/15 11:19:01;;;;;;;4.07;2.72;;;21.80;99.90;;;;;;7369069;32;20144;-57
2023/07/15 11:23:03;;;;;;;5.22;2.42;;;22.30;99.90;;;;;;7373103;32;20099;-58
2023/07/15 11:27:05;;;;;;;4.18;2.40;;;22.50;99.90;;;;;;7379581;32;20127;-57
2023/07/15 11:31:10;;;;;;;5.80;2.37;;;22.50;99.90;;;;;;7371917;32;20133;-56
2023/07/15 11:35:13;;;;;;;4.20;2.40;;;22.40;99.90;;;;;;7375606;32;20111;-56
2023/07/15 11:39:16;;;;;;;3.58;2.10;;;22.30;99.90;;;;;;7371123;32;20168;-56
2023/07/15 11:43:19;;;;;;;3.62;2.05;;;22.70;99.90;;;;;;7373347;32;20137;-58
2023/07/15 11:47:21;;;;;;;2.65;1.90;;;23.10;99.90;;;;;;7373371;32;20634;-57
2023/07/15 11:51:24;;;;;;;2.75;1.75;;;23.70;99.90;;;;;;7378605;32;20279;-57
2023/07/15 11:55:26;;;;;;;3.47;2.00;;;23.90;99.90;;;;;;7371829;32;20401;-57
2023/07/15 11:59:30;;;;;;;4.05;2.15;;;23.60;99.90;;;;;;7379068;32;20119;-58
2023/07/15 12:03:32;;;;;;;4.22;1.95;;;23.60;99.90;;;;;;7371877;32;20114;-57
2023/07/15 12:07:34;;;;;;;3.70;2.12;;;23.60;99.90;;;;;;7382751;32;20106;-57
2023/07/15 12:11:37;;;;;;;3.70;2.20;;;23.70;99.90;;;;;;7375443;32;20115;-57
2023/07/15 12:15:38;;;;;;;3.90;2.40;;;23.60;99.90;;;;;;7379597;32;20153;-57
2023/07/15 12:19:40;;;;;;;4.30;2.53;;;23.50;99.90;;;;;;7378338;32;20110;-57
2023/07/15 12:23:43;;;;;;;3.75;2.17;;;23.20;99.90;;;;;;7377794;32;20128;-57
2023/07/15 12:27:45;;;;;;;3.30;2.10;;;23.00;99.90;;;;;;7381060;32;20429;-57
2023/07/15 12:31:47;;;;;;;3.67;2.17;;;22.90;99.90;;;;;;7380470;32;20535;-58
2023/07/15 12:35:49;;;;;;;5.50;2.55;;;22.90;99.90;;;;;;7383100;32;20190;-58
2023/07/15 12:39:50;;;;;;;3.87;2.30;;;22.70;99.90;;;;;;7370028;32;20487;-58
2023/07/15 12:43:52;;;;;;;4.47;2.78;;;22.80;99.90;;;;;;7376182;32;20128;-56
2023/07/15 12:47:55;;;;;;;4.55;2.85;;;22.80;99.90;;;;;;7372223;32;20131;-56
2023/07/15 12:51:59;;;;;;;5.85;2.95;;;22.80;99.90;;;;;;7382204;32;20169;-56
2023/07/15 12:56:01;;;;;;;5.28;2.67;;;22.60;99.90;;;;;;7376795;32;20125;-57
2023/07/15 13:00:05;;;;;;;4.53;2.30;;;22.70;99.90;;;;;;7374477;32;20433;-57
2023/07/15 13:04:07;;;;;;;4.22;2.87;;;22.80;99.90;;;;;;7371836;32;20103;-57
2023/07/15 13:08:10;;;;;;;3.25;2.50;;;23.20;99.90;;;;;;7373203;32;20277;-57
2023/07/15 13:12:12;;;;;;;7.20;3.20;;;23.90;99.90;;;;;;7364858;32;20095;-57
2023/07/15 13:16:14;;;;;;;4.22;2.70;;;24.20;99.90;;;;;;7374365;32;20146;-57
2023/07/15 13:20:17;;;;;;;4.57;2.70;;;24.60;99.90;;;;;;7380039;32;20103;-56
2023/07/15 13:24:19;;;;;;;3.85;2.37;;;25.10;99.90;;;;;;7371826;32;20557;-57
2023/07/15 13:28:21;;;;;;;4.32;2.62;;;25.70;99.90;;;;;;7368719;32;20422;-57
2023/07/15 13:32:22;;;;;;;3.45;2.70;;;26.10;99.90;;;;;;7368477;32;20122;-58
2023/07/15 13:36:24;;;;;;;5.95;2.58;;;26.50;99.90;;;;;;7373118;32;20099;-57
2023/07/15 13:40:26;;;;;;;5.15;2.40;;;26.90;99.90;;;;;;7372031;32;20167;-58
2023/07/15 13:44:28;;;;;;;4.80;2.80;;;26.80;99.90;;;;;;7373680;32;20276;-57
2023/07/15 13:48:30;;;;;;;4.47;2.75;;;26.80;99.90;;;;;;7367875;32;20209;-57
2023/07/15 13:52:32;;;;;;;5.40;2.70;;;26.80;99.90;;;;;;7374263;32;20162;-57
2023/07/15 13:56:33;;;;;;;4.03;2.40;;;26.70;99.90;;;;;;7375279;32;20551;-57
2023/07/15 14:00:35;;;;;;;5.95;2.92;;;25.90;99.90;;;;;;7374421;32;20238;-58
2023/07/15 14:04:37;;;;;;;4.35;3.03;;;25.30;99.90;;;;;;7373264;32;20843;-58
2023/07/15 14:08:39;;;;;;;3.72;3.03;;;25.10;99.90;;;;;;7376322;32;20415;-58
2023/07/15 14:12:41;;;;;;;5.25;2.67;;;24.80;99.90;;;;;;7373658;32;20377;-57
2023/07/15 14:16:43;;;;;;;3.97;3.08;;;24.90;99.90;;;;;;7378507;32;20106;-58
2023/07/15 14:20:46;;;;;;;4.57;2.97;;;25.10;99.90;;;;;;7366250;32;20129;-58
2023/07/15 14:24:47;;;;;;;6.07;2.95;;;25.50;99.90;;;;;;7369635;32;20198;-55
2023/07/15 14:28:53;;;;;;;4.00;2.60;;;25.70;99.90;;;;;;7379677;32;20207;-57
2023/07/15 14:32:55;;;;;;;3.67;2.50;;;26.10;99.90;;;;;;7378166;32;20117;-57
2023/07/15 14:36:57;;;;;;;5.25;2.30;;;25.90;99.90;;;;;;7377589;32;20118;-57
2023/07/15 14:40:58;;;;;;;4.68;2.10;;;25.90;99.90;;;;;;7377951;32;20211;-57
2023/07/15 14:45:00;;;;;;;3.92;2.22;;;25.50;99.90;;;;;;7377473;32;20662;-57
2023/07/15 14:49:02;;;;;;;3.30;1.55;;;25.30;99.90;;;;;;7371624;32;20257;-58
2023/07/15 14:53:07;;;;;;;2.90;1.70;;;25.20;99.90;;;;;;7375905;32;20174;-57
2023/07/15 14:57:08;;;;;;;3.92;1.70;;;25.10;99.90;;;;;;7375256;32;20099;-58
2023/07/15 15:01:10;;;;;;;1.92;1.55;;;25.40;99.90;;;;;;7372055;32;20536;-58
2023/07/15 15:05:12;;;;;;;1.55;1.40;;;26.00;99.90;;;;;;7378663;32;20121;-58
2023/07/15 15:09:14;;;;;;;2.85;1.30;;;26.20;99.90;;;;;;7367831;32;20099;-58
2023/07/15 15:13:16;;;;;;;1.20;1.10;;;26.50;99.90;;;;;;7369503;32;20533;-58
2023/07/15 15:17:18;;;;;;;2.55;1.50;;;27.20;99.90;;;;;;7378391;32;20155;-58
2023/07/15 15:21:20;;;;;;;4.82;1.62;;;27.10;99.90;;;;;;7376549;32;20103;-58
2023/07/15 15:25:22;;;;;;;2.33;1.30;;;26.90;99.90;;;;;;7369855;32;20586;-58
2023/07/15 15:29:24;;;;;;;2.80;1.33;;;26.40;99.90;;;;;;7375462;32;20581;-57
2023/07/15 15:33:26;;;;;;;3.65;1.42;;;26.10;99.90;;;;;;7371457;32;20890;-57
2023/07/15 15:37:28;;;;;;;1.95;1.35;;;26.10;99.90;;;;;;7371721;32;20121;-57
2023/07/15 15:41:30;;;;;;;2.10;1.00;;;26.00;99.90;;;;;;7358445;32;20263;-57
2023/07/15 15:45:32;;;;;;;3.95;1.20;;;25.80;99.90;;;;;;7382622;32;20124;-57
2023/07/15 15:49:34;;;;;;;1.70;1.20;;;25.60;99.90;;;;;;7378168;32;20132;-57
2023/07/15 15:53:36;;;;;;;3.35;1.45;;;25.80;99.90;;;;;;7374314;32;20160;-57
2023/07/15 15:57:38;;;;;;;2.03;1.37;;;26.00;99.90;;;;;;7371657;32;20114;-57
2023/07/15 16:01:39;;;;;;;3.60;1.40;;;26.10;99.90;;;;;;7382913;32;20102;-57
2023/07/15 16:05:41;;;;;;;3.03;1.35;;;26.20;99.90;;;;;;7379990;32;20820;-57
2023/07/15 16:09:43;;;;;;;1.87;1.15;;;26.10;99.90;;;;;;7380278;32;20198;-57
2023/07/15 16:13:45;;;;;;;2.00;1.40;;;25.90;99.90;;;;;;7378568;32;20092;-57
2023/07/15 16:17:47;;;;;;;2.75;1.20;;;26.00;99.90;;;;;;7370870;32;20156;-57
2023/07/15 16:21:48;;;;;;;2.85;1.20;;;26.00;99.90;;;;;;7367846;32;20130;-57
2023/07/15 16:25:50;;;;;;;2.90;1.27;;;26.10;99.90;;;;;;7379254;32;20324;-58
2023/07/15 16:29:52;;;;;;;1.77;1.23;;;26.10;99.90;;;;;;7376629;32;20141;-57
2023/07/15 16:33:54;;;;;;;3.15;1.52;;;26.10;99.90;;;;;;7375050;32;20107;-58
2023/07/15 16:37:56;;;;;;;2.65;1.40;;;26.10;99.90;;;;;;7374409;32;20556;-57
2023/07/15 16:41:58;;;;;;;3.70;1.30;;;25.90;99.90;;;;;;7378844;32;20115;-58
2023/07/15 16:46:00;;;;;;;4.18;1.37;;;25.90;99.90;;;;;;7377588;32;20269;-57
2023/07/15 16:50:02;;;;;;;3.28;1.48;;;25.90;99.90;;;;;;7378972;32;20197;-57
2023/07/15 16:54:04;;;;;;;3.42;1.42;;;25.90;99.90;;;;;;7375600;32;20133;-57
2023/07/15 16:58:06;;;;;;;2.58;1.12;;;25.80;99.90;;;;;;7377636;32;20122;-57
2023/07/15 17:02:08;;;;;;;2.97;1.20;;;25.90;99.90;;;;;;7371051;32;20106;-57
2023/07/15 17:06:10;;;;;;;2.97;1.37;;;25.80;99.90;;;;;;7375128;32;20118;-57
2023/07/15 17:10:12;;;;;;;2.83;1.60;;;25.70;99.90;;;;;;7379360;32;20103;-57
2023/07/15 17:14:14;;;;;;;2.17;1.20;;;25.70;99.90;;;;;;7379971;32;20721;-57
2023/07/15 17:18:16;;;;;;;4.18;1.20;;;25.60;99.90;;;;;;7374429;32;20103;-57
2023/07/15 17:22:18;;;;;;;1.85;1.23;;;25.40;99.90;;;;;;7379908;32;20099;-57
2023/07/15 17:26:20;;;;;;;3.15;1.60;;;25.30;99.90;;;;;;7374465;32;20128;-57
2023/07/15 17:30:22;;;;;;;3.42;1.25;;;25.30;99.90;;;;;;7380828;32;20133;-58
2023/07/15 17:34:24;;;;;;;2.95;1.40;;;25.30;99.90;;;;;;7380420;32;20122;-57
2023/07/15 17:38:26;;;;;;;4.00;1.40;;;25.30;99.90;;;;;;7381745;32;20103;-57
2023/07/15 17:42:27;;;;;;;4.45;1.25;;;25.30;99.90;;;;;;7380069;32;20133;-57
2023/07/15 17:46:29;;;;;;;1.65;1.20;;;25.20;99.90;;;;;;7371250;32;20126;-57
2023/07/15 17:50:31;;;;;;;1.92;1.23;;;25.20;99.90;;;;;;7379693;32;20153;-57
2023/07/15 17:54:33;;;;;;;2.87;1.45;;;25.20;99.90;;;;;;7380604;32;20458;-57
2023/07/15 17:58:35;;;;;;;2.72;1.50;;;25.10;99.90;;;;;;7380394;32;20489;-57
2023/07/15 18:02:37;;;;;;;2.85;1.00;;;25.10;99.90;;;;;;7379428;32;20135;-57
2023/07/15 18:06:39;;;;;;;3.47;1.50;;;25.00;99.90;;;;;;7377458;32;20103;-57
2023/07/15 18:10:41;;;;;;;2.37;1.50;;;25.00;99.90;;;;;;7370702;32;20197;-57
2023/07/15 18:14:43;;;;;;;3.80;1.40;;;24.90;99.90;;;;;;7379564;32;20122;-57
2023/07/15 18:18:45;;;;;;;5.12;1.65;;;24.80;99.90;;;;;;7380454;32;20119;-58
2023/07/15 18:22:47;;;;;;;3.00;1.52;;;24.60;99.90;;;;;;7366973;32;20155;-58
2023/07/15 18:26:51;;;;;;;4.50;1.55;;;24.50;99.90;;;;;;7380125;32;20115;-57
2023/07/15 18:30:53;;;;;;;3.30;1.62;;;24.40;99.90;;;;;;7379288;32;20272;-57
2023/07/15 18:34:57;;;;;;;3.50;1.52;;;24.20;99.90;;;;;;7380335;32;20581;-57
2023/07/15 18:38:59;;;;;;;3.58;1.58;;;24.00;99.90;;;;;;7378708;32;20155;-58
2023/07/15 18:43:01;;;;;;;2.70;1.55;;;23.80;99.90;;;;;;7380127;32;20202;-58
2023/07/15 18:47:03;;;;;;;3.00;1.60;;;23.70;99.90;;;;;;7360796;32;20110;-57
2023/07/15 18:51:05;;;;;;;6.43;2.00;;;23.80;99.90;;;;;;7372178;32;20141;-57
2023/07/15 18:55:07;;;;;;;9.45;2.00;;;23.50;99.90;;;;;;7378638;32;20140;-57
2023/07/15 18:59:09;;;;;;;5.47;1.60;;;21.50;99.90;;;;;;7378037;32;20111;-57
2023/07/15 19:03:11;;;;;;;5.12;1.70;;;19.90;99.90;;;;;;7378875;32;20198;-57
2023/07/15 19:07:13;;;;;;;3.47;1.27;;;19.20;99.90;;;;;;7375926;32;20546;-57
2023/07/15 19:11:15;;;;;;;3.47;1.25;;;18.80;99.90;;;;;;7371219;32;20129;-56
2023/07/15 19:15:17;;;;;;;5.00;1.90;;;18.50;99.90;;;;;;7380664;32;20614;-57
2023/07/15 19:19:19;;;;;;;6.53;2.20;;;18.40;99.90;;;;;;7384232;32;20525;-57
2023/07/15 19:23:21;;;;;;;5.60;1.60;;;18.30;99.90;;;;;;7384449;32;20134;-57
2023/07/15 19:27:26;;;;;;;5.40;1.90;;;18.10;99.90;;;;;;7381746;32;20225;-56
2023/07/15 19:31:27;;;;;;;3.50;1.58;;;17.90;99.90;;;;;;7383791;32;20365;-57
2023/07/15 19:35:29;;;;;;;8.25;1.70;;;17.70;99.90;;;;;;7380995;32;20810;-56
2023/07/15 19:39:31;;;;;;;4.07;1.50;;;17.50;99.90;;;;;;7373392;32;20190;-56
2023/07/15 19:43:35;;;;;;;2.10;1.35;;;17.40;99.90;;;;;;7375301;32;20134;-56
2023/07/15 19:47:37;;;;;;;2.62;1.50;;;17.30;99.90;;;;;;7379164;32;20111;-57
2023/07/15 19:51:38;;;;;;;3.55;1.65;;;17.10;99.90;;;;;;7370273;32;20106;-56
2023/07/15 19:55:47;;;;;;;3.92;1.42;;;17.10;99.90;;;;;;7377970;32;20095;-56
2023/07/15 19:59:49;;;;;;;2.85;1.33;;;17.10;99.90;;;;;;7370975;32;20099;-55
2023/07/15 20:03:51;;;;;;;3.75;1.73;;;17.00;99.90;;;;;;7383369;32;20524;-55
2023/07/15 20:07:53;;;;;;;3.22;2.10;;;16.80;99.90;;;;;;7357320;32;20320;-55
2023/07/15 20:11:54;;;;;;;2.92;1.40;;;16.80;99.90;;;;;;7382633;32;20102;-55
2023/07/15 20:15:56;;;;;;;3.17;1.60;;;16.70;99.90;;;;;;7382946;32;20148;-55
2023/07/15 20:19:58;;;;;;;4.25;1.65;;;16.60;99.90;;;;;;7382709;32;20128;-55
2023/07/15 20:24:00;;;;;;;2.83;1.50;;;16.60;99.90;;;;;;7383625;32;20103;-56
2023/07/15 20:28:03;;;;;;;4.90;2.10;;;16.50;99.90;;;;;;7375713;32;20469;-55
2023/07/15 20:32:05;;;;;;;5.10;1.75;;;16.40;99.90;;;;;;7376716;32;20115;-55
2023/07/15 20:36:07;;;;;;;3.22;1.65;;;16.20;99.90;;;;;;7382948;32;20513;-55
2023/07/15 20:40:09;;;;;;;3.97;1.65;;;16.20;99.90;;;;;;7383673;32;20106;-56
2023/07/15 20:44:11;;;;;;;3.95;1.60;;;16.20;99.90;;;;;;7382289;32;20632;-56
2023/07/15 20:48:13;;;;;;;4.10;2.12;;;16.10;99.90;;;;;;7380657;32;20107;-56
2023/07/15 20:52:15;;;;;;;4.40;2.03;;;16.00;99.90;;;;;;7380693;32;20511;-56
2023/07/15 20:56:17;;;;;;;2.78;1.77;;;16.00;99.90;;;;;;7383080;32;20305;-56
2023/07/15 21:00:22;;;;;;;3.00;2.25;;;15.90;99.90;;;;;;7376297;32;20107;-56
2023/07/15 21:04:24;;;;;;;3.42;2.03;;;15.90;99.90;;;;;;7382066;32;20517;-55